sensor_id;sensor_type;location;lat;lon;timestamp;P1;durP1;ratioP1;P2;durP2;ratioP2
3074;SDS011;1548;51.716;8.748;2022-10-16T00:00:34;476.50;;;87.90;;
3074;SDS011;1548;51.716;8.748;2022-10-16T00:03:02;477.80;;;86.43;;
3074;SDS011;1548;51.716;8.748;2022-10-16T00:05:30;481.70;;;75.77;;
3074;SDS011;1548;51.716;8.748;2022-10-16T00:07:56;450.60;;;141.63;;
3074;SDS011;1548;51.716;8.748;2022-10-16T00:10:22;184.93;;;26.57;;
3074;SDS011;1548;51.716;8.748;2022-10-16T00:12:48;389.10;;;128.87;;
3074;SDS011;1548;51.716;8.748;2022-10-16T00:15:14;378.03;;;80.87;;
3074;SDS011;1548;51.716;8.748;2022-10-16T00:17:39;440.17;;;73.77;;
3074;SDS011;1548;51.716;8.748;2022-10-16T00:20:05;478.53;;;80.77;;
3074;SDS011;1548;51.716;8.748;2022-10-16T00:22:31;444.73;;;92.63;;
3074;SDS011;1548;51.716;8.748;2022-10-16T00:24:57;464.97;;;77.50;;
3074;SDS011;1548;51.716;8.748;2022-10-16T00:27:23;475.83;;;94.93;;
3074;SDS011;1548;51.716;8.748;2022-10-16T00:29:49;481.83;;;79.97;;
3074;SDS011;1548;51.716;8.748;2022-10-16T00:32:16;478.63;;;89.83;;
3074;SDS011;1548;51.716;8.748;2022-10-16T00:34:42;477.43;;;88.27;;
3074;SDS011;1548;51.716;8.748;2022-10-16T00:37:08;478.33;;;87.10;;
3074;SDS011;1548;51.716;8.748;2022-10-16T00:39:33;476.63;;;82.50;;
3074;SDS011;1548;51.716;8.748;2022-10-16T00:41:59;481.43;;;90.03;;
3074;SDS011;1548;51.716;8.748;2022-10-16T00:49:53;469.77;;;82.07;;
3074;SDS011;1548;51.716;8.748;2022-10-16T00:52:25;426.97;;;85.67;;
3074;SDS011;1548;51.716;8.748;2022-10-16T00:54:50;471.20;;;75.53;;
3074;SDS011;1548;51.716;8.748;2022-10-16T00:57:18;476.23;;;82.87;;
3074;SDS011;1548;51.716;8.748;2022-10-16T00:59:44;469.87;;;81.67;;
3074;SDS011;1548;51.716;8.748;2022-10-16T01:02:11;493.30;;;102.47;;
3074;SDS011;1548;51.716;8.748;2022-10-16T01:04:39;482.50;;;79.67;;
3074;SDS011;1548;51.716;8.748;2022-10-16T01:07:12;476.20;;;94.40;;
3074;SDS011;1548;51.716;8.748;2022-10-16T01:12:55;478.57;;;92.90;;
3074;SDS011;1548;51.716;8.748;2022-10-16T01:20:54;477.00;;;76.90;;
3074;SDS011;1548;51.716;8.748;2022-10-16T01:23:35;480.83;;;88.10;;
3074;SDS011;1548;51.716;8.748;2022-10-16T01:26:20;479.70;;;94.40;;
3074;SDS011;1548;51.716;8.748;2022-10-16T01:29:08;484.43;;;91.07;;
3074;SDS011;1548;51.716;8.748;2022-10-16T01:31:40;473.80;;;81.03;;
3074;SDS011;1548;51.716;8.748;2022-10-16T01:34:13;439.67;;;94.80;;
3074;SDS011;1548;51.716;8.748;2022-10-16T01:36:43;459.37;;;74.87;;
3074;SDS011;1548;51.716;8.748;2022-10-16T01:39:22;481.57;;;76.00;;
3074;SDS011;1548;51.716;8.748;2022-10-16T01:42:13;468.33;;;84.97;;
3074;SDS011;1548;51.716;8.748;2022-10-16T01:44:43;450.37;;;72.40;;
3074;SDS011;1548;51.716;8.748;2022-10-16T01:47:12;354.03;;;57.80;;
3074;SDS011;1548;51.716;8.748;2022-10-16T01:49:40;397.53;;;78.73;;
3074;SDS011;1548;51.716;8.748;2022-10-16T01:52:12;568.10;;;156.20;;
3074;SDS011;1548;51.716;8.748;2022-10-16T01:54:43;440.20;;;113.13;;
3074;SDS011;1548;51.716;8.748;2022-10-16T01:57:13;590.97;;;168.73;;
3074;SDS011;1548;51.716;8.748;2022-10-16T01:59:42;604.63;;;185.80;;
3074;SDS011;1548;51.716;8.748;2022-10-16T02:02:11;371.27;;;105.37;;
3074;SDS011;1548;51.716;8.748;2022-10-16T02:04:42;465.87;;;113.37;;
3074;SDS011;1548;51.716;8.748;2022-10-16T02:07:11;591.87;;;191.23;;
3074;SDS011;1548;51.716;8.748;2022-10-16T02:09:38;315.20;;;81.13;;
3074;SDS011;1548;51.716;8.748;2022-10-16T02:12:14;616.20;;;211.60;;
3074;SDS011;1548;51.716;8.748;2022-10-16T02:14:46;433.90;;;105.77;;
3074;SDS011;1548;51.716;8.748;2022-10-16T02:17:24;572.13;;;160.93;;
3074;SDS011;1548;51.716;8.748;2022-10-16T02:19:51;540.67;;;157.07;;
3074;SDS011;1548;51.716;8.748;2022-10-16T02:22:42;509.17;;;151.50;;
3074;SDS011;1548;51.716;8.748;2022-10-16T02:25:21;485.47;;;147.87;;
3074;SDS011;1548;51.716;8.748;2022-10-16T02:28:12;670.73;;;398.40;;
3074;SDS011;1548;51.716;8.748;2022-10-16T02:30:45;567.03;;;160.50;;
3074;SDS011;1548;51.716;8.748;2022-10-16T02:33:15;615.23;;;210.57;;
3074;SDS011;1548;51.716;8.748;2022-10-16T02:35:43;509.37;;;151.73;;
3074;SDS011;1548;51.716;8.748;2022-10-16T02:38:11;537.20;;;145.43;;
3074;SDS011;1548;51.716;8.748;2022-10-16T02:40:38;642.83;;;309.93;;
3074;SDS011;1548;51.716;8.748;2022-10-16T02:43:05;623.10;;;311.00;;
3074;SDS011;1548;51.716;8.748;2022-10-16T02:45:31;493.93;;;150.27;;
3074;SDS011;1548;51.716;8.748;2022-10-16T02:47:57;524.07;;;171.97;;
3074;SDS011;1548;51.716;8.748;2022-10-16T02:50:23;511.57;;;159.37;;
3074;SDS011;1548;51.716;8.748;2022-10-16T02:52:50;615.33;;;210.30;;
3074;SDS011;1548;51.716;8.748;2022-10-16T02:55:15;619.03;;;218.87;;
3074;SDS011;1548;51.716;8.748;2022-10-16T02:57:41;613.70;;;218.67;;
3074;SDS011;1548;51.716;8.748;2022-10-16T03:00:08;589.37;;;200.53;;
3074;SDS011;1548;51.716;8.748;2022-10-16T03:02:36;504.27;;;159.17;;
3074;SDS011;1548;51.716;8.748;2022-10-16T03:05:02;616.07;;;214.33;;
3074;SDS011;1548;51.716;8.748;2022-10-16T03:07:27;614.57;;;208.33;;
3074;SDS011;1548;51.716;8.748;2022-10-16T03:09:53;659.33;;;334.83;;
3074;SDS011;1548;51.716;8.748;2022-10-16T03:12:19;611.50;;;201.33;;
3074;SDS011;1548;51.716;8.748;2022-10-16T03:14:45;612.93;;;189.17;;
3074;SDS011;1548;51.716;8.748;2022-10-16T03:17:10;598.20;;;438.00;;
3074;SDS011;1548;51.716;8.748;2022-10-16T03:19:37;519.57;;;161.60;;
3074;SDS011;1548;51.716;8.748;2022-10-16T03:22:03;596.30;;;178.20;;
3074;SDS011;1548;51.716;8.748;2022-10-16T03:24:28;626.73;;;229.83;;
3074;SDS011;1548;51.716;8.748;2022-10-16T03:26:54;525.43;;;182.70;;
3074;SDS011;1548;51.716;8.748;2022-10-16T03:29:20;634.53;;;351.03;;
3074;SDS011;1548;51.716;8.748;2022-10-16T03:31:45;492.63;;;144.97;;
3074;SDS011;1548;51.716;8.748;2022-10-16T03:34:13;606.07;;;192.10;;
3074;SDS011;1548;51.716;8.748;2022-10-16T03:36:39;601.97;;;185.70;;
3074;SDS011;1548;51.716;8.748;2022-10-16T03:39:04;541.73;;;157.80;;
3074;SDS011;1548;51.716;8.748;2022-10-16T03:41:30;630.63;;;242.23;;
3074;SDS011;1548;51.716;8.748;2022-10-16T03:43:55;610.67;;;199.63;;
3074;SDS011;1548;51.716;8.748;2022-10-16T03:46:21;672.63;;;375.77;;
3074;SDS011;1548;51.716;8.748;2022-10-16T03:48:46;607.97;;;193.93;;
3074;SDS011;1548;51.716;8.748;2022-10-16T03:51:12;610.83;;;207.50;;
3074;SDS011;1548;51.716;8.748;2022-10-16T03:53:38;686.47;;;425.63;;
3074;SDS011;1548;51.716;8.748;2022-10-16T03:56:03;638.10;;;265.10;;
3074;SDS011;1548;51.716;8.748;2022-10-16T03:58:29;593.27;;;211.60;;
3074;SDS011;1548;51.716;8.748;2022-10-16T04:00:55;560.97;;;258.77;;
3074;SDS011;1548;51.716;8.748;2022-10-16T04:03:20;634.17;;;257.70;;
3074;SDS011;1548;51.716;8.748;2022-10-16T04:05:46;615.80;;;219.07;;
3074;SDS011;1548;51.716;8.748;2022-10-16T04:08:12;603.27;;;237.50;;
3074;SDS011;1548;51.716;8.748;2022-10-16T04:10:37;652.83;;;298.77;;
3074;SDS011;1548;51.716;8.748;2022-10-16T04:13:03;476.70;;;75.73;;
3074;SDS011;1548;51.716;8.748;2022-10-16T04:15:28;480.33;;;87.70;;
3074;SDS011;1548;51.716;8.748;2022-10-16T04:17:54;475.40;;;91.37;;
3074;SDS011;1548;51.716;8.748;2022-10-16T04:20:20;475.20;;;79.83;;
3074;SDS011;1548;51.716;8.748;2022-10-16T04:22:45;475.43;;;78.03;;
3074;SDS011;1548;51.716;8.748;2022-10-16T04:25:11;479.97;;;82.03;;
3074;SDS011;1548;51.716;8.748;2022-10-16T04:27:37;479.93;;;113.60;;
3074;SDS011;1548;51.716;8.748;2022-10-16T04:30:03;532.57;;;159.27;;
3074;SDS011;1548;51.716;8.748;2022-10-16T04:32:29;551.73;;;164.13;;
3074;SDS011;1548;51.716;8.748;2022-10-16T04:34:55;486.07;;;143.43;;
3074;SDS011;1548;51.716;8.748;2022-10-16T04:37:25;399.63;;;92.37;;
3074;SDS011;1548;51.716;8.748;2022-10-16T04:39:52;516.30;;;130.77;;
3074;SDS011;1548;51.716;8.748;2022-10-16T04:42:19;506.00;;;171.13;;
3074;SDS011;1548;51.716;8.748;2022-10-16T04:44:45;617.17;;;219.77;;
3074;SDS011;1548;51.716;8.748;2022-10-16T04:47:10;651.63;;;371.10;;
3074;SDS011;1548;51.716;8.748;2022-10-16T04:49:36;654.83;;;329.10;;
3074;SDS011;1548;51.716;8.748;2022-10-16T04:52:03;621.43;;;257.17;;
3074;SDS011;1548;51.716;8.748;2022-10-16T04:54:28;492.33;;;115.87;;
3074;SDS011;1548;51.716;8.748;2022-10-16T04:56:54;380.77;;;84.50;;
3074;SDS011;1548;51.716;8.748;2022-10-16T04:59:20;527.80;;;149.03;;
3074;SDS011;1548;51.716;8.748;2022-10-16T05:01:47;621.57;;;308.20;;
3074;SDS011;1548;51.716;8.748;2022-10-16T05:04:12;567.47;;;182.87;;
3074;SDS011;1548;51.716;8.748;2022-10-16T05:06:39;434.87;;;111.23;;
3074;SDS011;1548;51.716;8.748;2022-10-16T05:09:06;223.37;;;54.70;;
3074;SDS011;1548;51.716;8.748;2022-10-16T05:11:32;593.80;;;208.67;;
3074;SDS011;1548;51.716;8.748;2022-10-16T05:13:58;562.23;;;230.60;;
3074;SDS011;1548;51.716;8.748;2022-10-16T05:16:24;413.63;;;117.23;;
3074;SDS011;1548;51.716;8.748;2022-10-16T05:18:50;470.70;;;74.60;;
3074;SDS011;1548;51.716;8.748;2022-10-16T05:21:17;387.80;;;73.10;;
3074;SDS011;1548;51.716;8.748;2022-10-16T05:23:43;467.23;;;82.67;;
3074;SDS011;1548;51.716;8.748;2022-10-16T05:26:08;466.23;;;80.67;;
3074;SDS011;1548;51.716;8.748;2022-10-16T05:28:34;471.50;;;83.60;;
3074;SDS011;1548;51.716;8.748;2022-10-16T05:31:04;477.60;;;94.07;;
3074;SDS011;1548;51.716;8.748;2022-10-16T05:33:31;473.27;;;79.40;;
3074;SDS011;1548;51.716;8.748;2022-10-16T05:35:56;452.73;;;72.93;;
3074;SDS011;1548;51.716;8.748;2022-10-16T05:38:25;440.30;;;76.83;;
3074;SDS011;1548;51.716;8.748;2022-10-16T05:40:52;312.33;;;71.67;;
3074;SDS011;1548;51.716;8.748;2022-10-16T05:43:18;454.70;;;109.50;;
3074;SDS011;1548;51.716;8.748;2022-10-16T05:45:44;456.67;;;86.87;;
3074;SDS011;1548;51.716;8.748;2022-10-16T05:48:09;582.53;;;345.43;;
3074;SDS011;1548;51.716;8.748;2022-10-16T05:50:35;646.10;;;370.97;;
3074;SDS011;1548;51.716;8.748;2022-10-16T05:53:01;591.83;;;319.47;;
3074;SDS011;1548;51.716;8.748;2022-10-16T05:55:27;522.33;;;161.27;;
3074;SDS011;1548;51.716;8.748;2022-10-16T05:57:55;454.53;;;168.50;;
3074;SDS011;1548;51.716;8.748;2022-10-16T06:00:21;493.17;;;158.90;;
3074;SDS011;1548;51.716;8.748;2022-10-16T06:02:48;446.47;;;73.27;;
3074;SDS011;1548;51.716;8.748;2022-10-16T06:05:13;461.10;;;78.23;;
3074;SDS011;1548;51.716;8.748;2022-10-16T06:07:39;307.37;;;63.33;;
3074;SDS011;1548;51.716;8.748;2022-10-16T06:10:05;368.43;;;57.63;;
3074;SDS011;1548;51.716;8.748;2022-10-16T06:12:31;532.93;;;141.20;;
3074;SDS011;1548;51.716;8.748;2022-10-16T06:14:56;412.07;;;106.40;;
3074;SDS011;1548;51.716;8.748;2022-10-16T06:17:22;471.67;;;96.97;;
3074;SDS011;1548;51.716;8.748;2022-10-16T06:19:47;362.90;;;112.93;;
3074;SDS011;1548;51.716;8.748;2022-10-16T06:22:13;480.10;;;130.27;;
3074;SDS011;1548;51.716;8.748;2022-10-16T06:24:38;365.40;;;92.30;;
3074;SDS011;1548;51.716;8.748;2022-10-16T06:27:04;564.47;;;170.10;;
3074;SDS011;1548;51.716;8.748;2022-10-16T06:29:30;484.73;;;108.33;;
3074;SDS011;1548;51.716;8.748;2022-10-16T06:31:55;457.57;;;91.87;;
3074;SDS011;1548;51.716;8.748;2022-10-16T06:34:21;477.67;;;122.40;;
3074;SDS011;1548;51.716;8.748;2022-10-16T06:36:46;600.20;;;222.53;;
3074;SDS011;1548;51.716;8.748;2022-10-16T06:39:12;520.37;;;147.60;;
3074;SDS011;1548;51.716;8.748;2022-10-16T06:41:37;471.57;;;142.37;;
3074;SDS011;1548;51.716;8.748;2022-10-16T06:44:06;466.03;;;83.33;;
3074;SDS011;1548;51.716;8.748;2022-10-16T06:46:35;332.33;;;51.67;;
3074;SDS011;1548;51.716;8.748;2022-10-16T06:49:00;467.53;;;138.47;;
3074;SDS011;1548;51.716;8.748;2022-10-16T06:51:26;450.33;;;87.47;;
3074;SDS011;1548;51.716;8.748;2022-10-16T06:53:54;478.03;;;93.53;;
3074;SDS011;1548;51.716;8.748;2022-10-16T06:56:24;476.80;;;91.27;;
3074;SDS011;1548;51.716;8.748;2022-10-16T06:58:51;303.77;;;85.27;;
3074;SDS011;1548;51.716;8.748;2022-10-16T07:01:18;565.77;;;188.63;;
3074;SDS011;1548;51.716;8.748;2022-10-16T07:03:45;605.57;;;245.33;;
3074;SDS011;1548;51.716;8.748;2022-10-16T07:06:13;448.50;;;93.60;;
3074;SDS011;1548;51.716;8.748;2022-10-16T07:08:41;472.87;;;170.87;;
3074;SDS011;1548;51.716;8.748;2022-10-16T07:11:11;528.00;;;140.13;;
3074;SDS011;1548;51.716;8.748;2022-10-16T07:13:39;526.00;;;187.80;;
3074;SDS011;1548;51.716;8.748;2022-10-16T07:18:33;646.10;;;312.00;;
3074;SDS011;1548;51.716;8.748;2022-10-16T07:21:03;517.33;;;203.47;;
3074;SDS011;1548;51.716;8.748;2022-10-16T07:23:30;526.00;;;190.83;;
3074;SDS011;1548;51.716;8.748;2022-10-16T07:25:55;457.63;;;110.70;;
3074;SDS011;1548;51.716;8.748;2022-10-16T07:28:21;488.40;;;86.40;;
3074;SDS011;1548;51.716;8.748;2022-10-16T07:30:47;476.07;;;88.97;;
3074;SDS011;1548;51.716;8.748;2022-10-16T07:33:13;479.83;;;80.00;;
3074;SDS011;1548;51.716;8.748;2022-10-16T07:35:46;484.87;;;92.13;;
3074;SDS011;1548;51.716;8.748;2022-10-16T07:38:16;483.77;;;104.07;;
3074;SDS011;1548;51.716;8.748;2022-10-16T07:40:42;481.30;;;117.93;;
3074;SDS011;1548;51.716;8.748;2022-10-16T07:43:07;485.70;;;106.73;;
3074;SDS011;1548;51.716;8.748;2022-10-16T07:45:33;484.97;;;98.03;;
3074;SDS011;1548;51.716;8.748;2022-10-16T07:47:58;489.33;;;103.37;;
3074;SDS011;1548;51.716;8.748;2022-10-16T07:50:24;484.33;;;109.40;;
3074;SDS011;1548;51.716;8.748;2022-10-16T07:52:50;490.53;;;98.83;;
3074;SDS011;1548;51.716;8.748;2022-10-16T07:55:16;481.63;;;100.33;;
3074;SDS011;1548;51.716;8.748;2022-10-16T07:57:42;486.50;;;105.00;;
3074;SDS011;1548;51.716;8.748;2022-10-16T08:00:07;485.20;;;128.30;;
3074;SDS011;1548;51.716;8.748;2022-10-16T08:02:38;482.33;;;110.20;;
3074;SDS011;1548;51.716;8.748;2022-10-16T08:05:07;490.10;;;101.07;;
3074;SDS011;1548;51.716;8.748;2022-10-16T08:07:34;487.10;;;107.37;;
3074;SDS011;1548;51.716;8.748;2022-10-16T08:10:00;487.43;;;112.80;;
3074;SDS011;1548;51.716;8.748;2022-10-16T08:12:25;487.17;;;117.50;;
3074;SDS011;1548;51.716;8.748;2022-10-16T08:14:51;488.63;;;102.57;;
3074;SDS011;1548;51.716;8.748;2022-10-16T08:17:17;489.57;;;99.80;;
3074;SDS011;1548;51.716;8.748;2022-10-16T08:19:48;487.83;;;102.17;;
3074;SDS011;1548;51.716;8.748;2022-10-16T08:22:14;487.07;;;98.87;;
3074;SDS011;1548;51.716;8.748;2022-10-16T08:24:41;483.97;;;118.00;;
3074;SDS011;1548;51.716;8.748;2022-10-16T08:27:06;485.93;;;97.10;;
3074;SDS011;1548;51.716;8.748;2022-10-16T08:29:33;485.20;;;97.27;;
3074;SDS011;1548;51.716;8.748;2022-10-16T08:31:59;486.33;;;88.87;;
3074;SDS011;1548;51.716;8.748;2022-10-16T08:34:25;485.40;;;92.37;;
3074;SDS011;1548;51.716;8.748;2022-10-16T08:36:52;488.47;;;99.23;;
3074;SDS011;1548;51.716;8.748;2022-10-16T08:39:19;488.80;;;99.77;;
3074;SDS011;1548;51.716;8.748;2022-10-16T08:42:00;488.90;;;93.53;;
3074;SDS011;1548;51.716;8.748;2022-10-16T08:49:54;465.13;;;76.17;;
3074;SDS011;1548;51.716;8.748;2022-10-16T08:52:27;538.67;;;168.97;;
3074;SDS011;1548;51.716;8.748;2022-10-16T08:54:55;595.17;;;225.53;;
3074;SDS011;1548;51.716;8.748;2022-10-16T08:57:22;600.90;;;274.90;;
3074;SDS011;1548;51.716;8.748;2022-10-16T08:59:51;564.50;;;237.17;;
3074;SDS011;1548;51.716;8.748;2022-10-16T09:16:44;624.20;;;356.23;;
3074;SDS011;1548;51.716;8.748;2022-10-16T09:19:35;573.37;;;276.80;;
3074;SDS011;1548;51.716;8.748;2022-10-16T09:22:16;548.70;;;234.00;;
3074;SDS011;1548;51.716;8.748;2022-10-16T09:24:44;216.60;;;60.90;;
3074;SDS011;1548;51.716;8.748;2022-10-16T09:27:10;631.67;;;464.57;;
3074;SDS011;1548;51.716;8.748;2022-10-16T09:29:37;482.77;;;85.03;;
3074;SDS011;1548;51.716;8.748;2022-10-16T09:32:08;454.43;;;149.97;;
3074;SDS011;1548;51.716;8.748;2022-10-16T09:34:39;523.93;;;224.37;;
3074;SDS011;1548;51.716;8.748;2022-10-16T09:37:12;707.20;;;488.33;;
3074;SDS011;1548;51.716;8.748;2022-10-16T09:39:45;547.83;;;273.63;;
3074;SDS011;1548;51.716;8.748;2022-10-16T09:42:14;622.87;;;349.33;;
3074;SDS011;1548;51.716;8.748;2022-10-16T09:44:42;660.67;;;356.43;;
3074;SDS011;1548;51.716;8.748;2022-10-16T09:47:13;672.00;;;385.93;;
3074;SDS011;1548;51.716;8.748;2022-10-16T09:52:21;699.07;;;467.07;;
3074;SDS011;1548;51.716;8.748;2022-10-16T09:54:57;643.50;;;294.73;;
3074;SDS011;1548;51.716;8.748;2022-10-16T09:57:24;661.50;;;358.63;;
3074;SDS011;1548;51.716;8.748;2022-10-16T09:59:54;634.27;;;261.87;;
3074;SDS011;1548;51.716;8.748;2022-10-16T10:02:29;650.97;;;328.73;;
3074;SDS011;1548;51.716;8.748;2022-10-16T10:04:58;643.53;;;295.30;;
3074;SDS011;1548;51.716;8.748;2022-10-16T10:07:25;650.60;;;335.37;;
3074;SDS011;1548;51.716;8.748;2022-10-16T10:09:52;687.57;;;446.93;;
3074;SDS011;1548;51.716;8.748;2022-10-16T10:12:23;622.93;;;290.63;;
3074;SDS011;1548;51.716;8.748;2022-10-16T10:14:51;713.27;;;531.93;;
3074;SDS011;1548;51.716;8.748;2022-10-16T10:17:22;679.80;;;469.87;;
3074;SDS011;1548;51.716;8.748;2022-10-16T10:19:59;644.63;;;380.40;;
3074;SDS011;1548;51.716;8.748;2022-10-16T10:22:30;539.77;;;209.87;;
3074;SDS011;1548;51.716;8.748;2022-10-16T10:27:27;678.27;;;393.03;;
3074;SDS011;1548;51.716;8.748;2022-10-16T10:30:03;579.17;;;321.70;;
3074;SDS011;1548;51.716;8.748;2022-10-16T10:33:27;483.87;;;85.37;;
3074;SDS011;1548;51.716;8.748;2022-10-16T10:36:01;483.97;;;111.70;;
3074;SDS011;1548;51.716;8.748;2022-10-16T10:38:54;487.73;;;112.33;;
3074;SDS011;1548;51.716;8.748;2022-10-16T10:46:57;473.63;;;113.93;;
3074;SDS011;1548;51.716;8.748;2022-10-16T10:57:59;490.80;;;88.57;;
3074;SDS011;1548;51.716;8.748;2022-10-16T11:06:41;490.23;;;107.00;;
3074;SDS011;1548;51.716;8.748;2022-10-16T11:11:40;490.37;;;107.57;;
3074;SDS011;1548;51.716;8.748;2022-10-16T11:14:19;502.40;;;102.67;;
3074;SDS011;1548;51.716;8.748;2022-10-16T11:16:51;491.23;;;96.63;;
3074;SDS011;1548;51.716;8.748;2022-10-16T11:22:11;493.77;;;101.70;;
3074;SDS011;1548;51.716;8.748;2022-10-16T11:27:36;496.97;;;98.77;;
3074;SDS011;1548;51.716;8.748;2022-10-16T11:30:22;500.63;;;91.87;;
3074;SDS011;1548;51.716;8.748;2022-10-16T11:43:38;502.50;;;105.43;;
3074;SDS011;1548;51.716;8.748;2022-10-16T11:46:15;487.57;;;84.83;;
3074;SDS011;1548;51.716;8.748;2022-10-16T11:48:48;496.80;;;90.07;;
3074;SDS011;1548;51.716;8.748;2022-10-16T11:56:25;497.00;;;98.43;;
3074;SDS011;1548;51.716;8.748;2022-10-16T12:01:57;475.70;;;127.70;;
3074;SDS011;1548;51.716;8.748;2022-10-16T12:04:26;499.03;;;91.27;;
3074;SDS011;1548;51.716;8.748;2022-10-16T12:07:03;497.33;;;101.90;;
3074;SDS011;1548;51.716;8.748;2022-10-16T12:09:38;494.67;;;114.93;;
3074;SDS011;1548;51.716;8.748;2022-10-16T12:15:01;494.83;;;105.50;;
3074;SDS011;1548;51.716;8.748;2022-10-16T12:17:37;492.03;;;119.10;;
3074;SDS011;1548;51.716;8.748;2022-10-16T12:20:53;500.43;;;96.47;;
3074;SDS011;1548;51.716;8.748;2022-10-16T12:22:56;493.97;;;114.83;;
3074;SDS011;1548;51.716;8.748;2022-10-16T12:25:37;493.33;;;111.07;;
3074;SDS011;1548;51.716;8.748;2022-10-16T12:30:40;497.83;;;97.27;;
3074;SDS011;1548;51.716;8.748;2022-10-16T12:35:48;494.33;;;108.67;;
3074;SDS011;1548;51.716;8.748;2022-10-16T12:38:56;497.07;;;93.53;;
3074;SDS011;1548;51.716;8.748;2022-10-16T12:41:12;494.00;;;113.60;;
3074;SDS011;1548;51.716;8.748;2022-10-16T12:44:00;488.97;;;118.47;;
3074;SDS011;1548;51.716;8.748;2022-10-16T12:51:39;492.37;;;109.70;;
3074;SDS011;1548;51.716;8.748;2022-10-16T13:27:24;500.07;;;103.80;;
3074;SDS011;1548;51.716;8.748;2022-10-16T13:30:00;490.57;;;136.40;;
3074;SDS011;1548;51.716;8.748;2022-10-16T13:32:33;500.50;;;101.53;;
3074;SDS011;1548;51.716;8.748;2022-10-16T13:34:59;498.23;;;103.33;;
3074;SDS011;1548;51.716;8.748;2022-10-16T13:37:26;498.33;;;106.63;;
3074;SDS011;1548;51.716;8.748;2022-10-16T13:40:02;495.93;;;114.47;;
3074;SDS011;1548;51.716;8.748;2022-10-16T13:42:59;492.97;;;122.07;;
3074;SDS011;1548;51.716;8.748;2022-10-16T13:45:26;494.47;;;126.13;;
3074;SDS011;1548;51.716;8.748;2022-10-16T13:48:04;495.53;;;109.83;;
3074;SDS011;1548;51.716;8.748;2022-10-16T13:50:36;496.07;;;108.50;;
3074;SDS011;1548;51.716;8.748;2022-10-16T13:53:35;493.53;;;117.67;;
3074;SDS011;1548;51.716;8.748;2022-10-16T13:55:55;492.97;;;128.70;;
3074;SDS011;1548;51.716;8.748;2022-10-16T13:58:21;489.00;;;148.67;;
3074;SDS011;1548;51.716;8.748;2022-10-16T14:01:22;482.80;;;156.47;;
3074;SDS011;1548;51.716;8.748;2022-10-16T14:03:45;456.77;;;165.70;;
3074;SDS011;1548;51.716;8.748;2022-10-16T14:06:19;450.80;;;166.13;;
3074;SDS011;1548;51.716;8.748;2022-10-16T14:08:52;448.40;;;169.20;;
3074;SDS011;1548;51.716;8.748;2022-10-16T14:11:44;464.53;;;163.27;;
3074;SDS011;1548;51.716;8.748;2022-10-16T14:14:13;472.50;;;162.70;;
3074;SDS011;1548;51.716;8.748;2022-10-16T14:16:40;473.20;;;154.20;;
3074;SDS011;1548;51.716;8.748;2022-10-16T14:19:27;474.40;;;161.77;;
3074;SDS011;1548;51.716;8.748;2022-10-16T14:21:54;480.80;;;149.37;;
3074;SDS011;1548;51.716;8.748;2022-10-16T14:24:31;485.17;;;140.73;;
3074;SDS011;1548;51.716;8.748;2022-10-16T14:26:58;489.80;;;135.43;;
3074;SDS011;1548;51.716;8.748;2022-10-16T14:29:25;489.93;;;135.73;;
3074;SDS011;1548;51.716;8.748;2022-10-16T14:31:59;492.13;;;131.40;;
3074;SDS011;1548;51.716;8.748;2022-10-16T14:34:28;494.33;;;136.47;;
3074;SDS011;1548;51.716;8.748;2022-10-16T14:36:55;469.70;;;152.23;;
3074;SDS011;1548;51.716;8.748;2022-10-16T14:39:23;495.40;;;120.17;;
3074;SDS011;1548;51.716;8.748;2022-10-16T14:41:51;493.70;;;137.30;;
3074;SDS011;1548;51.716;8.748;2022-10-16T14:44:17;485.50;;;128.43;;
3074;SDS011;1548;51.716;8.748;2022-10-16T14:46:44;484.10;;;139.10;;
3074;SDS011;1548;51.716;8.748;2022-10-16T14:51:41;495.00;;;116.80;;
3074;SDS011;1548;51.716;8.748;2022-10-16T14:54:09;495.60;;;112.37;;
3074;SDS011;1548;51.716;8.748;2022-10-16T14:56:43;495.73;;;100.87;;
3074;SDS011;1548;51.716;8.748;2022-10-16T15:02:18;495.27;;;111.83;;
3074;SDS011;1548;51.716;8.748;2022-10-16T15:04:49;492.27;;;120.53;;
3074;SDS011;1548;51.716;8.748;2022-10-16T15:07:16;491.87;;;122.90;;
3074;SDS011;1548;51.716;8.748;2022-10-16T15:09:42;492.73;;;119.93;;
3074;SDS011;1548;51.716;8.748;2022-10-16T15:12:08;492.83;;;117.33;;
3074;SDS011;1548;51.716;8.748;2022-10-16T15:14:33;493.17;;;122.80;;
3074;SDS011;1548;51.716;8.748;2022-10-16T15:16:59;469.47;;;155.67;;
3074;SDS011;1548;51.716;8.748;2022-10-16T15:19:25;482.07;;;148.67;;
3074;SDS011;1548;51.716;8.748;2022-10-16T15:21:50;487.27;;;143.63;;
3074;SDS011;1548;51.716;8.748;2022-10-16T15:24:17;478.10;;;157.27;;
3074;SDS011;1548;51.716;8.748;2022-10-16T15:26:43;480.03;;;153.50;;
3074;SDS011;1548;51.716;8.748;2022-10-16T15:29:11;485.10;;;143.90;;
3074;SDS011;1548;51.716;8.748;2022-10-16T15:31:37;488.17;;;133.10;;
3074;SDS011;1548;51.716;8.748;2022-10-16T15:34:02;490.93;;;122.63;;
3074;SDS011;1548;51.716;8.748;2022-10-16T15:36:33;489.50;;;126.53;;
3074;SDS011;1548;51.716;8.748;2022-10-16T15:39:02;493.07;;;115.73;;
3074;SDS011;1548;51.716;8.748;2022-10-16T15:41:30;490.47;;;121.63;;
3074;SDS011;1548;51.716;8.748;2022-10-16T15:43:56;489.30;;;138.33;;
3074;SDS011;1548;51.716;8.748;2022-10-16T15:46:22;490.30;;;127.77;;
3074;SDS011;1548;51.716;8.748;2022-10-16T15:48:49;481.63;;;145.30;;
3074;SDS011;1548;51.716;8.748;2022-10-16T15:51:20;482.33;;;152.03;;
3074;SDS011;1548;51.716;8.748;2022-10-16T15:53:45;467.10;;;161.60;;
3074;SDS011;1548;51.716;8.748;2022-10-16T15:56:11;464.23;;;158.80;;
3074;SDS011;1548;51.716;8.748;2022-10-16T15:58:38;479.27;;;146.07;;
3074;SDS011;1548;51.716;8.748;2022-10-16T16:01:04;480.63;;;150.67;;
3074;SDS011;1548;51.716;8.748;2022-10-16T16:03:30;485.17;;;148.07;;
3074;SDS011;1548;51.716;8.748;2022-10-16T16:05:57;485.17;;;142.20;;
3074;SDS011;1548;51.716;8.748;2022-10-16T16:08:23;484.03;;;138.00;;
3074;SDS011;1548;51.716;8.748;2022-10-16T16:11:02;480.37;;;146.37;;
3074;SDS011;1548;51.716;8.748;2022-10-16T16:13:29;476.93;;;154.97;;
3074;SDS011;1548;51.716;8.748;2022-10-16T16:15:55;473.50;;;157.90;;
3074;SDS011;1548;51.716;8.748;2022-10-16T16:18:21;475.70;;;155.60;;
3074;SDS011;1548;51.716;8.748;2022-10-16T16:20:48;467.23;;;157.80;;
3074;SDS011;1548;51.716;8.748;2022-10-16T16:23:14;485.50;;;133.43;;
3074;SDS011;1548;51.716;8.748;2022-10-16T16:25:40;483.93;;;136.70;;
3074;SDS011;1548;51.716;8.748;2022-10-16T16:28:06;487.07;;;131.33;;
3074;SDS011;1548;51.716;8.748;2022-10-16T16:30:32;476.43;;;148.27;;
3074;SDS011;1548;51.716;8.748;2022-10-16T16:32:57;472.77;;;150.00;;
3074;SDS011;1548;51.716;8.748;2022-10-16T16:35:23;474.63;;;153.20;;
3074;SDS011;1548;51.716;8.748;2022-10-16T16:37:48;476.33;;;144.77;;
3074;SDS011;1548;51.716;8.748;2022-10-16T16:40:14;480.33;;;151.67;;
3074;SDS011;1548;51.716;8.748;2022-10-16T16:42:40;475.77;;;159.17;;
3074;SDS011;1548;51.716;8.748;2022-10-16T16:45:05;481.67;;;134.33;;
3074;SDS011;1548;51.716;8.748;2022-10-16T16:47:33;474.00;;;147.03;;
3074;SDS011;1548;51.716;8.748;2022-10-16T16:49:58;443.97;;;165.77;;
3074;SDS011;1548;51.716;8.748;2022-10-16T16:52:24;464.60;;;158.27;;
3074;SDS011;1548;51.716;8.748;2022-10-16T16:54:50;468.73;;;155.27;;
3074;SDS011;1548;51.716;8.748;2022-10-16T16:57:19;470.47;;;160.33;;